Wilson Creek (Missouri), Battlefield (07052160)

StateMissouriCurrentPotential (113 cfs)
RiverWilson CreekFlood - The river is flooding. Obstacles can be treacherous or deadly. The river should be avoided at this stage for casual trips and definitely for the inexperienced. Trips should be attempted only with protective gear and equipment.Flood(none)
Updated2019-10-13 18:30 (1 hour ago)High - The river is high and potentially dangerous, especially for the young and / or inexperienced. Normal stream obstacles are sometimes difficult to navigate. Extended distances can be attempted, but canoe travel may not be advisable.High(none)
Discharge113 cfs (median: 43 cfs)Good - Conditions are ideal for a canoe or kayak. Boats typically will drag on fewer than one-quarter of riffles, if at all, and portages are unnecessary or rare. Normal float lengths can be attempted without a problem.Good(none)
Height2.64 feetLow - River is low but can still be floated. Some riffles are okay but most come with significant dragging and might need a portage. Float lengths should be reduced to accommodate low flow, dragging, and portages.Low(none)
TrendFalling (falling over 24 hours)Poor - River is too low to float comfortably. Most or all riffles will drag or must be portaged and some obstacles (such as slick shelf rock) cause undue problems. Avoid the river at this stage for casual paddling trips.Poor(none)
USGSExternal icon USGS Site for Battlefield (07052160)LocationExternal icon Google Maps

Trending Data

Plot Image
ObservationHeightDischargeMaximum
Discharge
Minimum
Discharge
Mean
Discharge
P05P10P20P25P50
(Median)
P75P80P90P95
2019-10-13 18:30 2.64 113 245 (1974) 25 (1981) 70 30 33 34 43 72 90 228
2019-10-13 17:30 2.65 116 245 (1974) 25 (1981) 70 30 33 34 43 72 90 228
2019-10-13 16:30 2.64 113 245 (1974) 25 (1981) 70 30 33 34 43 72 90 228
2019-10-13 15:30 2.63 111 245 (1974) 25 (1981) 70 30 33 34 43 72 90 228
2019-10-13 14:30 2.63 111 245 (1974) 25 (1981) 70 30 33 34 43 72 90 228
2019-10-13 13:30 2.61 107 245 (1974) 25 (1981) 70 30 33 34 43 72 90 228
2019-10-13 12:30 2.60 105 245 (1974) 25 (1981) 70 30 33 34 43 72 90 228
2019-10-13 11:30 2.59 102 245 (1974) 25 (1981) 70 30 33 34 43 72 90 228
2019-10-13 10:30 2.59 102 245 (1974) 25 (1981) 70 30 33 34 43 72 90 228
2019-10-13 09:30 2.60 105 245 (1974) 25 (1981) 70 30 33 34 43 72 90 228
2019-10-13 08:30 2.62 109 245 (1974) 25 (1981) 70 30 33 34 43 72 90 228
2019-10-13 07:30 2.64 113 245 (1974) 25 (1981) 70 30 33 34 43 72 90 228
2019-10-13 06:30 2.67 120 245 (1974) 25 (1981) 70 30 33 34 43 72 90 228
2019-10-13 05:30 2.68 122 245 (1974) 25 (1981) 70 30 33 34 43 72 90 228
2019-10-13 04:30 2.69 125 245 (1974) 25 (1981) 70 30 33 34 43 72 90 228
2019-10-13 03:30 2.72 132 245 (1974) 25 (1981) 70 30 33 34 43 72 90 228
2019-10-13 02:30 2.74 137 245 (1974) 25 (1981) 70 30 33 34 43 72 90 228
2019-10-13 01:30 2.76 142 245 (1974) 25 (1981) 70 30 33 34 43 72 90 228
2019-10-13 00:30 2.77 145 245 (1974) 25 (1981) 70 30 33 34 43 72 90 228
2019-10-12 23:30 2.78 147 256 (1970) 24 (1981) 61 32 34 35 45 67 70 128
2019-10-12 22:30 2.79 150 256 (1970) 24 (1981) 61 32 34 35 45 67 70 128
2019-10-12 21:30 2.79 150 256 (1970) 24 (1981) 61 32 34 35 45 67 70 128
2019-10-12 20:30 2.79 150 256 (1970) 24 (1981) 61 32 34 35 45 67 70 128
2019-10-12 19:30 2.83 161 256 (1970) 24 (1981) 61 32 34 35 45 67 70 128
2019-10-12 18:30 2.82 158 256 (1970) 24 (1981) 61 32 34 35 45 67 70 128
2019-10-12 17:30 2.85 167 256 (1970) 24 (1981) 61 32 34 35 45 67 70 128
2019-10-12 16:30 2.85 167 256 (1970) 24 (1981) 61 32 34 35 45 67 70 128
2019-10-12 15:30 2.84 164 256 (1970) 24 (1981) 61 32 34 35 45 67 70 128
2019-10-12 14:30 2.83 161 256 (1970) 24 (1981) 61 32 34 35 45 67 70 128
2019-10-12 13:30 2.84 164 256 (1970) 24 (1981) 61 32 34 35 45 67 70 128
2019-10-12 12:30 2.85 167 256 (1970) 24 (1981) 61 32 34 35 45 67 70 128
2019-10-12 11:30 2.84 164 256 (1970) 24 (1981) 61 32 34 35 45 67 70 128
2019-10-12 10:30 2.84 164 256 (1970) 24 (1981) 61 32 34 35 45 67 70 128
2019-10-12 09:30 2.85 167 256 (1970) 24 (1981) 61 32 34 35 45 67 70 128
2019-10-12 08:30 2.86 169 256 (1970) 24 (1981) 61 32 34 35 45 67 70 128
2019-10-12 07:30 2.90 181 256 (1970) 24 (1981) 61 32 34 35 45 67 70 128
2019-10-12 06:30 2.92 186 256 (1970) 24 (1981) 61 32 34 35 45 67 70 128
2019-10-12 05:30 2.98 202 256 (1970) 24 (1981) 61 32 34 35 45 67 70 128
2019-10-12 04:30 2.97 200 256 (1970) 24 (1981) 61 32 34 35 45 67 70 128
2019-10-12 03:30 3.04 219 256 (1970) 24 (1981) 61 32 34 35 45 67 70 128
2019-10-12 02:30 3.06 224 256 (1970) 24 (1981) 61 32 34 35 45 67 70 128
2019-10-12 01:30 3.09 233 256 (1970) 24 (1981) 61 32 34 35 45 67 70 128
2019-10-12 00:30 3.10 235 256 (1970) 24 (1981) 61 32 34 35 45 67 70 128
2019-10-11 23:30 3.15 249 205 (1979) 25 (1981) 69 29 34 34 49 80 87 202
2019-10-11 22:30 3.17 255 205 (1979) 25 (1981) 69 29 34 34 49 80 87 202
2019-10-11 21:30 3.24 276 205 (1979) 25 (1981) 69 29 34 34 49 80 87 202
2019-10-11 20:30 3.25 279 205 (1979) 25 (1981) 69 29 34 34 49 80 87 202
2019-10-11 19:30 3.32 300 205 (1979) 25 (1981) 69 29 34 34 49 80 87 202
2019-10-11 18:30 3.36 313 205 (1979) 25 (1981) 69 29 34 34 49 80 87 202
2019-10-11 17:30 3.43 335 205 (1979) 25 (1981) 69 29 34 34 49 80 87 202
2019-10-11 16:30 3.50 357 205 (1979) 25 (1981) 69 29 34 34 49 80 87 202
2019-10-11 15:30 3.61 394 205 (1979) 25 (1981) 69 29 34 34 49 80 87 202
2019-10-11 14:30 3.72 433 205 (1979) 25 (1981) 69 29 34 34 49 80 87 202
2019-10-11 13:30 3.73 436 205 (1979) 25 (1981) 69 29 34 34 49 80 87 202
2019-10-11 12:30 3.93 505 205 (1979) 25 (1981) 69 29 34 34 49 80 87 202
2019-10-11 11:30 4.13 578 205 (1979) 25 (1981) 69 29 34 34 49 80 87 202
2019-10-11 10:30 4.38 675 205 (1979) 25 (1981) 69 29 34 34 49 80 87 202
2019-10-11 09:30 4.63 777 205 (1979) 25 (1981) 69 29 34 34 49 80 87 202
2019-10-11 08:30 4.93 908 205 (1979) 25 (1981) 69 29 34 34 49 80 87 202
2019-10-11 07:30 4.85 872 205 (1979) 25 (1981) 69 29 34 34 49 80 87 202
2019-10-11 06:30 4.76 832 205 (1979) 25 (1981) 69 29 34 34 49 80 87 202
2019-10-11 05:30 4.77 837 205 (1979) 25 (1981) 69 29 34 34 49 80 87 202
2019-10-11 04:30 4.48 715 205 (1979) 25 (1981) 69 29 34 34 49 80 87 202
2019-10-11 03:30 3.69 422 205 (1979) 25 (1981) 69 29 34 34 49 80 87 202
2019-10-11 02:30 3.73 436 205 (1979) 25 (1981) 69 29 34 34 49 80 87 202
2019-10-11 01:30 3.70 425 205 (1979) 25 (1981) 69 29 34 34 49 80 87 202
2019-10-11 00:30 3.12 241 205 (1979) 25 (1981) 69 29 34 34 49 80 87 202
2019-10-10 23:30 3.11 238 228 (2002) 25 (1970) 64 25 30 32 37 82 102 174
2019-10-10 22:30 3.16 252 228 (2002) 25 (1970) 64 25 30 32 37 82 102 174
2019-10-10 21:30 3.24 276 228 (2002) 25 (1970) 64 25 30 32 37 82 102 174
2019-10-10 20:30 3.34 306 228 (2002) 25 (1970) 64 25 30 32 37 82 102 174
2019-10-10 19:30 3.44 338 228 (2002) 25 (1970) 64 25 30 32 37 82 102 174
2019-10-10 18:30 3.50 357 228 (2002) 25 (1970) 64 25 30 32 37 82 102 174
2019-10-10 17:30 2.58 100 228 (2002) 25 (1970) 64 25 30 32 37 82 102 174
2019-10-10 16:30 2.53 90 228 (2002) 25 (1970) 64 25 30 32 37 82 102 174
2019-10-10 15:30 2.41 69 228 (2002) 25 (1970) 64 25 30 32 37 82 102 174
2019-10-10 14:30 2.42 71 228 (2002) 25 (1970) 64 25 30 32 37 82 102 174
2019-10-10 13:30 2.41 69 228 (2002) 25 (1970) 64 25 30 32 37 82 102 174
2019-10-10 12:30 2.38 64 228 (2002) 25 (1970) 64 25 30 32 37 82 102 174
2019-10-10 11:30 2.33 56 228 (2002) 25 (1970) 64 25 30 32 37 82 102 174
2019-10-10 10:30 2.32 55 228 (2002) 25 (1970) 64 25 30 32 37 82 102 174
2019-10-10 09:30 2.30 52 228 (2002) 25 (1970) 64 25 30 32 37 82 102 174
2019-10-10 08:30 2.31 54 228 (2002) 25 (1970) 64 25 30 32 37 82 102 174
2019-10-10 07:30 2.31 54 228 (2002) 25 (1970) 64 25 30 32 37 82 102 174
2019-10-10 06:30 2.33 56 228 (2002) 25 (1970) 64 25 30 32 37 82 102 174
2019-10-10 05:30 2.33 56 228 (2002) 25 (1970) 64 25 30 32 37 82 102 174
2019-10-10 04:30 2.32 55 228 (2002) 25 (1970) 64 25 30 32 37 82 102 174
2019-10-10 03:30 2.32 55 228 (2002) 25 (1970) 64 25 30 32 37 82 102 174
2019-10-10 02:30 2.34 58 228 (2002) 25 (1970) 64 25 30 32 37 82 102 174
2019-10-10 01:30 2.35 59 228 (2002) 25 (1970) 64 25 30 32 37 82 102 174
2019-10-10 00:30 2.37 63 228 (2002) 25 (1970) 64 25 30 32 37 82 102 174
2019-10-09 23:30 2.35 59 213 (1969) 24 (1970) 56 25 33 34 37 58 66 141
2019-10-09 22:30 2.36 61 213 (1969) 24 (1970) 56 25 33 34 37 58 66 141
2019-10-09 21:30 2.35 59 213 (1969) 24 (1970) 56 25 33 34 37 58 66 141
2019-10-09 20:30 2.37 63 213 (1969) 24 (1970) 56 25 33 34 37 58 66 141
2019-10-09 19:30 2.36 61 213 (1969) 24 (1970) 56 25 33 34 37 58 66 141
2019-10-09 18:30 2.37 63 213 (1969) 24 (1970) 56 25 33 34 37 58 66 141
2019-10-09 17:30 2.38 64 213 (1969) 24 (1970) 56 25 33 34 37 58 66 141
2019-10-09 16:30 2.39 66 213 (1969) 24 (1970) 56 25 33 34 37 58 66 141
2019-10-09 15:30 2.41 69 213 (1969) 24 (1970) 56 25 33 34 37 58 66 141
2019-10-09 14:30 2.42 71 213 (1969) 24 (1970) 56 25 33 34 37 58 66 141
2019-10-09 13:30 2.45 76 213 (1969) 24 (1970) 56 25 33 34 37 58 66 141
2019-10-09 12:30 2.41 69 213 (1969) 24 (1970) 56 25 33 34 37 58 66 141
2019-10-09 11:30 2.39 66 213 (1969) 24 (1970) 56 25 33 34 37 58 66 141
2019-10-09 10:30 2.36 61 213 (1969) 24 (1970) 56 25 33 34 37 58 66 141
2019-10-09 09:30 2.34 58 213 (1969) 24 (1970) 56 25 33 34 37 58 66 141
2019-10-09 08:30 2.34 58 213 (1969) 24 (1970) 56 25 33 34 37 58 66 141
2019-10-09 07:30 2.34 58 213 (1969) 24 (1970) 56 25 33 34 37 58 66 141
2019-10-09 06:30 2.33 56 213 (1969) 24 (1970) 56 25 33 34 37 58 66 141
2019-10-09 05:30 2.35 59 213 (1969) 24 (1970) 56 25 33 34 37 58 66 141
2019-10-09 04:30 2.36 61 213 (1969) 24 (1970) 56 25 33 34 37 58 66 141
2019-10-09 03:30 2.38 64 213 (1969) 24 (1970) 56 25 33 34 37 58 66 141
2019-10-09 02:30 2.40 67 213 (1969) 24 (1970) 56 25 33 34 37 58 66 141
2019-10-09 01:30 2.42 71 213 (1969) 24 (1970) 56 25 33 34 37 58 66 141
2019-10-09 00:30 2.42 71 213 (1969) 24 (1970) 56 25 33 34 37 58 66 141
2019-10-08 23:30 2.43 72 92 (1978) 25 (1970) 42 25 32 33 36 48 54 62
2019-10-08 22:30 2.43 72 92 (1978) 25 (1970) 42 25 32 33 36 48 54 62
2019-10-08 21:30 2.46 78 92 (1978) 25 (1970) 42 25 32 33 36 48 54 62
2019-10-08 20:30 2.46 78 92 (1978) 25 (1970) 42 25 32 33 36 48 54 62
2019-10-08 19:30 2.45 76 92 (1978) 25 (1970) 42 25 32 33 36 48 54 62
2019-10-08 18:30 2.46 78 92 (1978) 25 (1970) 42 25 32 33 36 48 54 62
2019-10-08 17:30 2.45 76 92 (1978) 25 (1970) 42 25 32 33 36 48 54 62
2019-10-08 16:30 2.46 78 92 (1978) 25 (1970) 42 25 32 33 36 48 54 62
2019-10-08 15:30 2.46 78 92 (1978) 25 (1970) 42 25 32 33 36 48 54 62
2019-10-08 14:30 2.46 78 92 (1978) 25 (1970) 42 25 32 33 36 48 54 62
2019-10-08 13:30 2.46 78 92 (1978) 25 (1970) 42 25 32 33 36 48 54 62
2019-10-08 12:30 2.44 74 92 (1978) 25 (1970) 42 25 32 33 36 48 54 62
2019-10-08 11:30 2.42 71 92 (1978) 25 (1970) 42 25 32 33 36 48 54 62
2019-10-08 10:30 2.36 61 92 (1978) 25 (1970) 42 25 32 33 36 48 54 62
2019-10-08 09:30 2.36 61 92 (1978) 25 (1970) 42 25 32 33 36 48 54 62
2019-10-08 08:30 2.37 63 92 (1978) 25 (1970) 42 25 32 33 36 48 54 62
2019-10-08 07:30 2.38 64 92 (1978) 25 (1970) 42 25 32 33 36 48 54 62
2019-10-08 06:30 2.40 67 92 (1978) 25 (1970) 42 25 32 33 36 48 54 62
2019-10-08 05:30 2.42 71 92 (1978) 25 (1970) 42 25 32 33 36 48 54 62
2019-10-08 04:30 2.43 72 92 (1978) 25 (1970) 42 25 32 33 36 48 54 62
2019-10-08 03:30 2.45 76 92 (1978) 25 (1970) 42 25 32 33 36 48 54 62
2019-10-08 02:30 2.48 81 92 (1978) 25 (1970) 42 25 32 33 36 48 54 62
2019-10-08 01:30 2.50 85 92 (1978) 25 (1970) 42 25 32 33 36 48 54 62
2019-10-08 00:30 2.55 94 92 (1978) 25 (1970) 42 25 32 33 36 48 54 62
2019-10-07 23:30 2.56 96 94 (1978) 24 (1981) 43 30 32 33 38 47 49 65
2019-10-07 22:30 2.56 96 94 (1978) 24 (1981) 43 30 32 33 38 47 49 65
2019-10-07 21:30 2.56 96 94 (1978) 24 (1981) 43 30 32 33 38 47 49 65
2019-10-07 20:30 2.56 96 94 (1978) 24 (1981) 43 30 32 33 38 47 49 65
2019-10-07 19:30 2.57 98 94 (1978) 24 (1981) 43 30 32 33 38 47 49 65
2019-10-07 18:30 2.60 105 94 (1978) 24 (1981) 43 30 32 33 38 47 49 65
2019-10-07 17:30 2.61 107 94 (1978) 24 (1981) 43 30 32 33 38 47 49 65
2019-10-07 16:30 2.60 105 94 (1978) 24 (1981) 43 30 32 33 38 47 49 65
2019-10-07 15:30 2.61 107 94 (1978) 24 (1981) 43 30 32 33 38 47 49 65
2019-10-07 14:30 2.59 102 94 (1978) 24 (1981) 43 30 32 33 38 47 49 65
2019-10-07 13:30 2.57 98 94 (1978) 24 (1981) 43 30 32 33 38 47 49 65
2019-10-07 12:30 2.57 98 94 (1978) 24 (1981) 43 30 32 33 38 47 49 65
2019-10-07 11:30 2.59 102 94 (1978) 24 (1981) 43 30 32 33 38 47 49 65
2019-10-07 10:30 2.58 100 94 (1978) 24 (1981) 43 30 32 33 38 47 49 65
2019-10-07 09:30 2.58 100 94 (1978) 24 (1981) 43 30 32 33 38 47 49 65
2019-10-07 08:30 2.59 102 94 (1978) 24 (1981) 43 30 32 33 38 47 49 65
2019-10-07 07:30 2.62 109 94 (1978) 24 (1981) 43 30 32 33 38 47 49 65
2019-10-07 06:30 2.66 118 94 (1978) 24 (1981) 43 30 32 33 38 47 49 65
2019-10-07 05:30 2.69 125 94 (1978) 24 (1981) 43 30 32 33 38 47 49 65
2019-10-07 04:30 2.74 137 94 (1978) 24 (1981) 43 30 32 33 38 47 49 65
2019-10-07 03:30 2.80 153 94 (1978) 24 (1981) 43 30 32 33 38 47 49 65
2019-10-07 02:30 2.83 161 94 (1978) 24 (1981) 43 30 32 33 38 47 49 65
2019-10-07 01:30 2.92 186 94 (1978) 24 (1981) 43 30 32 33 38 47 49 65
2019-10-07 00:30 3.00 208 94 (1978) 24 (1981) 43 30 32 33 38 47 49 65
2019-10-06 23:30 3.04 219 91 (1978) 24 (1981) 46 29 34 34 39 54 55 88
2019-10-06 22:30 3.11 238 91 (1978) 24 (1981) 46 29 34 34 39 54 55 88
2019-10-06 21:30 3.12 241 91 (1978) 24 (1981) 46 29 34 34 39 54 55 88
2019-10-06 20:30 2.88 175 91 (1978) 24 (1981) 46 29 34 34 39 54 55 88
2019-10-06 19:30 2.89 178 91 (1978) 24 (1981) 46 29 34 34 39 54 55 88
2019-10-06 18:30 2.84 164 91 (1978) 24 (1981) 46 29 34 34 39 54 55 88
2019-10-06 17:30 2.81 155 91 (1978) 24 (1981) 46 29 34 34 39 54 55 88
2019-10-06 16:30 2.80 153 91 (1978) 24 (1981) 46 29 34 34 39 54 55 88
2019-10-06 15:30 2.83 161 91 (1978) 24 (1981) 46 29 34 34 39 54 55 88
2019-10-06 14:30 2.87 172 91 (1978) 24 (1981) 46 29 34 34 39 54 55 88
2019-10-06 13:30 2.91 184 91 (1978) 24 (1981) 46 29 34 34 39 54 55 88
2019-10-06 12:30 2.96 197 91 (1978) 24 (1981) 46 29 34 34 39 54 55 88
2019-10-06 11:30 3.04 219 91 (1978) 24 (1981) 46 29 34 34 39 54 55 88
2019-10-06 10:30 3.14 247 91 (1978) 24 (1981) 46 29 34 34 39 54 55 88
2019-10-06 09:30 3.32 300 91 (1978) 24 (1981) 46 29 34 34 39 54 55 88
2019-10-06 08:30 3.47 348 91 (1978) 24 (1981) 46 29 34 34 39 54 55 88
2019-10-06 07:30 3.69 422 91 (1978) 24 (1981) 46 29 34 34 39 54 55 88
2019-10-06 06:30 3.67 415 91 (1978) 24 (1981) 46 29 34 34 39 54 55 88
2019-10-06 05:30 2.93 189 91 (1978) 24 (1981) 46 29 34 34 39 54 55 88
2019-10-06 04:30 2.95 194 91 (1978) 24 (1981) 46 29 34 34 39 54 55 88
2019-10-06 03:30 2.84 164 91 (1978) 24 (1981) 46 29 34 34 39 54 55 88
2019-10-06 02:30 2.83 161 91 (1978) 24 (1981) 46 29 34 34 39 54 55 88
2019-10-06 01:30 2.84 164 91 (1978) 24 (1981) 46 29 34 34 39 54 55 88
2019-10-06 00:30 2.91 184 91 (1978) 24 (1981) 46 29 34 34 39 54 55 88

A total of 187 rows are displayed for years 1969 through 2018.

Trips for Wilson Creek (Missouri), Battlefield (07052160)

DateStartEndDistanceConditionDischargeHeightFishingDetails

A total of 0 rows are displayed.

Condition Descriptions

Fishing Conditions

Fish Species

Notes

Classic Trip List

The classic River Trips application is still available for use. It is updated with the new system using a data retrofit. It is no longer maintained. The original River Trips application is no longer updated (as of 1 Dec 2016) but can be checked for errors or for the condition of the data before it was converted to the new system.